createdAt,value
2023-02-27T00:02:24.348Z,100604.50
2023-02-27T00:04:51.965Z,100623.41
2023-02-27T00:07:18.748Z,100633.03
2023-02-27T00:09:45.491Z,100615.97
2023-02-27T00:12:12.218Z,100642.03
2023-02-27T00:14:39.061Z,100638.38
2023-02-27T00:17:06.043Z,100647.06
2023-02-27T00:19:32.833Z,100650.34
2023-02-27T00:21:59.597Z,100641.66
2023-02-27T00:24:26.388Z,100614.94
2023-02-27T00:26:53.161Z,100652.31
2023-02-27T00:29:20.010Z,100651.38
2023-02-27T00:31:51.741Z,100655.69
2023-02-27T00:34:18.727Z,100665.50
2023-02-27T00:36:45.521Z,100634.03
2023-02-27T00:39:12.353Z,100657.59
2023-02-27T00:41:40.190Z,100646.84
2023-02-27T00:44:07.024Z,100671.34
2023-02-27T00:46:33.895Z,100661.72
2023-02-27T00:49:00.843Z,100667.25
2023-02-27T00:51:27.924Z,100674.91
2023-02-27T00:53:55.669Z,100654.56
2023-02-27T00:56:22.458Z,100678.16
2023-02-27T00:58:50.511Z,100675.06
2023-02-27T01:01:17.341Z,100678.63
2023-02-27T01:03:44.094Z,100683.97
2023-02-27T01:06:11.179Z,100681.06
2023-02-27T01:08:37.977Z,100678.63
2023-02-27T01:11:05.244Z,100672.84
2023-02-27T01:13:32.104Z,100693.31
2023-02-27T01:15:59.073Z,100687.13
2023-02-27T01:20:56.860Z,100701.84
2023-02-27T01:23:23.976Z,100701.38
2023-02-27T01:25:50.850Z,100698.75
2023-02-27T01:28:17.688Z,100705.13
2023-02-27T01:30:44.501Z,100670.72
2023-02-27T01:33:14.947Z,100696.97
2023-02-27T01:35:41.742Z,100699.50
2023-02-27T01:38:08.586Z,100703.38
2023-02-27T01:40:37.674Z,100704.19
2023-02-27T01:43:05.700Z,100709.06
2023-02-27T01:45:40.147Z,100707.94
2023-02-27T01:48:14.671Z,100709.16
2023-02-27T01:50:48.945Z,100711.53
2023-02-27T01:53:17.857Z,100715.09
2023-02-27T01:55:46.889Z,100706.19
2023-02-27T01:58:16.255Z,100726.88
2023-02-27T02:00:43.707Z,100731.34
2023-02-27T02:03:28.408Z,100729.75
2023-02-27T02:05:58.215Z,100730.03
2023-02-27T02:08:27.250Z,100725.94
2023-02-27T02:10:55.797Z,100739.75
2023-02-27T02:13:22.820Z,100730.41
2023-02-27T02:16:12.929Z,100714.50
2023-02-27T02:18:39.576Z,100737.44
2023-02-27T02:21:27.980Z,100741.56
2023-02-27T02:24:10.165Z,100718.69
2023-02-27T02:26:55.040Z,100741.19
2023-02-27T02:29:43.582Z,100753.25
2023-02-27T02:32:28.766Z,100743.59
2023-02-27T02:35:20.017Z,100745.94
2023-02-27T02:38:07.269Z,100753.03
2023-02-27T02:40:52.829Z,100756.03
2023-02-27T02:43:54.216Z,100752.47
2023-02-27T02:46:47.814Z,100749.03
2023-02-27T02:49:32.497Z,100753.41
2023-02-27T02:52:22.795Z,100748.94
2023-02-27T02:55:06.527Z,100755.56
2023-02-27T02:57:41.135Z,100746.13
2023-02-27T03:00:08.766Z,100757.06
2023-02-27T03:02:49.600Z,100767.63
2023-02-27T03:05:24.706Z,100753.25
2023-02-27T03:08:14.679Z,100754.38
2023-02-27T03:10:54.319Z,100750.78
2023-02-27T03:13:53.068Z,100751.25
2023-02-27T03:16:23.860Z,100758.84
2023-02-27T03:19:05.751Z,100760.44
2023-02-27T03:21:41.301Z,100755.47
2023-02-27T03:24:13.425Z,100757.53
2023-02-27T03:26:45.164Z,100757.53
2023-02-27T03:29:20.260Z,100748.53
2023-02-27T03:31:52.649Z,100757.16
2023-02-27T03:34:23.569Z,100762.13
2023-02-27T03:37:13.172Z,100764.84
2023-02-27T03:39:50.335Z,100767.47
2023-02-27T03:42:20.560Z,100781.38
2023-02-27T03:45:33.845Z,100766.22
2023-02-27T03:48:02.753Z,100751.06
2023-02-27T03:50:29.984Z,100765.56
2023-02-27T03:52:57.731Z,100778.66
2023-02-27T03:55:32.844Z,100762.56
2023-02-27T03:57:59.810Z,100781.47
2023-02-27T04:00:28.046Z,100782.13
2023-02-27T04:02:57.662Z,100778.47
2023-02-27T04:05:26.310Z,100768.75
2023-02-27T04:07:55.859Z,100783.81
2023-02-27T04:10:47.198Z,100781.00
2023-02-27T04:13:45.455Z,100771.81
2023-02-27T04:16:50.928Z,100778.75
2023-02-27T04:19:37.160Z,100773.13
2023-02-27T04:22:16.243Z,100774.16
2023-02-27T04:25:22.850Z,100781.72
2023-02-27T04:28:12.365Z,100783.13
2023-02-27T04:31:03.373Z,100787.53
2023-02-27T04:34:22.043Z,100773.38
2023-02-27T04:36:53.308Z,100796.03
2023-02-27T04:39:23.977Z,100784.41
2023-02-27T04:41:57.288Z,100807.91
2023-02-27T04:44:26.180Z,100810.34
2023-02-27T04:46:56.192Z,100818.03
2023-02-27T04:49:31.028Z,100821.09
2023-02-27T04:52:10.627Z,100787.88
2023-02-27T04:54:51.729Z,100828.22
2023-02-27T04:57:30.012Z,100825.22
2023-02-27T05:00:00.099Z,100836.81
2023-02-27T05:02:29.504Z,100841.13
2023-02-27T05:05:00.497Z,100844.63
2023-02-27T05:07:35.516Z,100850.00
2023-02-27T05:10:07.324Z,100828.84
2023-02-27T05:12:44.615Z,100853.94
2023-02-27T05:15:16.126Z,100846.66
2023-02-27T05:17:50.369Z,100865.56
2023-02-27T05:20:17.935Z,100869.44
2023-02-27T05:23:09.363Z,100882.28
2023-02-27T05:25:58.581Z,100891.81
2023-02-27T05:28:38.940Z,100891.16
2023-02-27T05:31:19.898Z,100884.50
2023-02-27T05:33:59.384Z,100907.28
2023-02-27T05:36:37.900Z,100914.03
2023-02-27T05:39:08.928Z,100919.91
2023-02-27T05:41:43.238Z,100926.16
2023-02-27T05:44:15.899Z,100905.09
2023-02-27T05:46:50.191Z,100931.41
2023-02-27T05:49:26.921Z,100934.72
2023-02-27T05:51:57.177Z,100942.19
2023-02-27T05:54:33.651Z,100943.16
2023-02-27T05:57:02.785Z,100943.59
2023-02-27T05:59:39.200Z,100938.56
2023-02-27T06:02:06.468Z,100956.84
2023-02-27T06:04:33.326Z,100964.09
2023-02-27T06:07:00.619Z,100953.03
2023-02-27T06:09:27.328Z,100938.44
2023-02-27T06:11:54.262Z,100945.19
2023-02-27T06:14:21.018Z,100970.50
2023-02-27T06:16:47.779Z,100970.31
2023-02-27T06:19:14.690Z,100975.63
2023-02-27T06:21:42.022Z,100981.88
2023-02-27T06:24:08.735Z,100986.56
2023-02-27T06:26:35.510Z,100978.44
2023-02-27T06:29:02.340Z,100960.81
2023-02-27T06:31:29.180Z,100972.63
2023-02-27T06:33:55.954Z,100974.03
2023-02-27T06:36:23.122Z,100968.63
2023-02-27T06:38:49.937Z,100969.78
2023-02-27T06:41:16.713Z,100949.53
2023-02-27T06:43:43.560Z,100972.69
2023-02-27T06:46:10.408Z,100974.44
2023-02-27T06:48:37.478Z,100980.44
2023-02-27T06:51:04.275Z,100980.69
2023-02-27T06:53:31.023Z,100961.13
2023-02-27T06:55:57.790Z,100973.78
2023-02-27T06:58:24.975Z,100972.13
2023-02-27T07:00:52.025Z,100986.19
2023-02-27T07:03:18.742Z,100985.09
2023-02-27T07:05:45.519Z,100981.66
2023-02-27T07:08:12.307Z,100979.84
2023-02-27T07:10:40.080Z,100983.91
2023-02-27T07:13:07.066Z,100958.72
2023-02-27T07:15:33.910Z,100986.25
2023-02-27T07:18:00.665Z,100965.34
2023-02-27T07:20:27.457Z,100980.44
2023-02-27T07:22:54.259Z,100987.41
2023-02-27T07:25:20.985Z,100965.28
2023-02-27T07:27:49.765Z,100991.34
2023-02-27T07:30:18.139Z,100993.03
2023-02-27T07:32:45.036Z,100991.75
2023-02-27T07:35:12.219Z,100999.44
2023-02-27T07:37:39.385Z,100995.97
2023-02-27T07:40:10.148Z,101009.75
2023-02-27T07:42:36.981Z,100995.91
2023-02-27T07:45:04.566Z,100998.03
2023-02-27T07:47:31.788Z,100997.38
2023-02-27T07:49:58.533Z,100977.31
2023-02-27T07:52:25.713Z,101009.63
2023-02-27T07:54:52.603Z,101012.72
2023-02-27T07:57:19.425Z,101009.88
2023-02-27T07:59:46.285Z,101002.09
2023-02-27T08:02:13.106Z,101015.13
2023-02-27T08:04:39.943Z,101002.53
2023-02-27T08:07:06.771Z,101010.50
2023-02-27T08:09:33.588Z,101016.09
2023-02-27T08:12:00.483Z,101017.13
2023-02-27T08:14:27.257Z,101015.41
2023-02-27T08:16:53.980Z,101019.03
2023-02-27T08:19:20.717Z,101023.09
2023-02-27T08:21:47.433Z,101024.72
2023-02-27T08:24:14.392Z,101024.78
2023-02-27T08:26:41.099Z,101026.75
2023-02-27T08:29:07.878Z,101026.16
2023-02-27T08:31:34.650Z,101025.69
2023-02-27T08:34:09.961Z,101029.25
2023-02-27T08:36:38.289Z,101041.13
2023-02-27T08:39:06.880Z,101023.44
2023-02-27T08:41:34.440Z,101017.00
2023-02-27T08:44:01.213Z,101031.78
2023-02-27T08:46:28.308Z,101027.84
2023-02-27T08:48:55.394Z,101021.25
2023-02-27T08:51:22.245Z,101042.09
2023-02-27T08:53:49.056Z,101027.28
2023-02-27T08:56:15.836Z,101032.78
2023-02-27T08:58:42.576Z,101047.16
2023-02-27T09:01:09.663Z,101054.00
2023-02-27T09:03:37.382Z,101048.34
2023-02-27T09:06:05.329Z,101044.31
2023-02-27T09:08:32.329Z,101034.91
2023-02-27T09:10:59.496Z,101036.38
2023-02-27T09:13:26.962Z,101035.44
2023-02-27T09:15:54.264Z,101048.22
2023-02-27T09:18:21.240Z,101037.03
2023-02-27T09:20:51.248Z,101053.88
2023-02-27T09:23:17.957Z,101063.56
2023-02-27T09:25:47.293Z,101069.28
2023-02-27T09:28:14.337Z,101040.13
2023-02-27T09:30:42.078Z,101040.16
2023-02-27T09:33:09.157Z,101047.72
2023-02-27T09:35:35.930Z,101061.78
2023-02-27T09:38:02.645Z,101059.47
2023-02-27T09:40:36.811Z,101063.56
2023-02-27T09:43:23.870Z,101066.53
2023-02-27T09:45:54.807Z,101053.34
2023-02-27T09:48:34.189Z,101077.28
2023-02-27T09:51:01.887Z,101074.53
2023-02-27T09:53:37.411Z,101078.34
2023-02-27T09:56:17.248Z,101067.69
2023-02-27T09:58:55.833Z,101082.66
2023-02-27T10:01:32.912Z,101070.81
2023-02-27T10:04:22.581Z,101083.59
2023-02-27T10:06:58.005Z,101075.31
2023-02-27T10:10:01.991Z,101081.19
2023-02-27T10:12:47.489Z,101083.41
2023-02-27T10:15:27.699Z,101062.06
2023-02-27T10:18:28.133Z,101092.66
2023-02-27T10:20:59.892Z,101084.44
2023-02-27T10:23:32.620Z,101082.88
2023-02-27T10:26:01.024Z,101086.97
2023-02-27T10:28:29.380Z,101071.03
2023-02-27T10:30:59.523Z,101076.03
2023-02-27T10:33:28.134Z,101092.25
2023-02-27T10:35:55.354Z,101097.28
2023-02-27T10:38:41.564Z,101093.75
2023-02-27T10:41:12.871Z,101093.66
2023-02-27T10:43:40.884Z,101090.59
2023-02-27T10:46:14.927Z,101091.13
2023-02-27T10:48:42.042Z,101091.84
2023-02-27T10:51:26.456Z,101088.84
2023-02-27T10:54:23.705Z,101080.31
2023-02-27T10:56:52.631Z,101087.47
2023-02-27T10:59:34.543Z,101085.00
2023-02-27T11:02:06.154Z,101089.84
2023-02-27T11:04:39.105Z,101091.72
2023-02-27T11:07:09.740Z,101071.63
2023-02-27T11:09:37.260Z,101071.22
2023-02-27T11:12:19.145Z,101097.53
2023-02-27T11:14:52.852Z,101089.66
2023-02-27T11:17:28.666Z,101075.69
2023-02-27T11:19:57.155Z,101064.84
2023-02-27T11:22:26.908Z,101086.22
2023-02-27T11:25:16.468Z,101079.91
2023-02-27T11:27:43.269Z,101061.81
2023-02-27T11:30:31.937Z,101067.69
2023-02-27T11:33:01.483Z,101076.47
2023-02-27T11:35:33.765Z,101070.44
2023-02-27T11:38:18.067Z,101069.50
2023-02-27T11:41:03.680Z,101080.97
2023-02-27T11:43:50.907Z,101083.41
2023-02-27T11:46:47.022Z,101054.66
2023-02-27T11:49:28.308Z,101077.38
2023-02-27T11:52:11.218Z,101070.84
2023-02-27T11:54:55.599Z,101073.38
2023-02-27T11:57:30.290Z,101065.06
2023-02-27T12:00:21.052Z,101068.22
2023-02-27T12:03:18.966Z,101066.75
2023-02-27T12:05:53.707Z,101058.16
2023-02-27T12:08:36.864Z,101061.19
2023-02-27T12:11:18.575Z,101054.91
2023-02-27T12:13:51.183Z,101062.00
2023-02-27T12:16:32.776Z,101068.91
2023-02-27T12:19:26.192Z,101078.69
2023-02-27T12:22:24.559Z,101071.06
2023-02-27T12:25:17.898Z,101084.66
2023-02-27T12:27:54.584Z,101066.22
2023-02-27T12:30:26.336Z,101083.47
2023-02-27T12:33:21.050Z,101088.75
2023-02-27T12:35:55.846Z,101090.03
2023-02-27T12:38:23.943Z,101098.44
2023-02-27T12:41:15.841Z,101064.56
2023-02-27T12:43:50.008Z,101096.78
2023-02-27T12:46:46.084Z,101084.13
2023-02-27T12:49:31.749Z,101092.03
2023-02-27T12:52:14.391Z,101089.28
2023-02-27T12:54:52.999Z,101092.56
2023-02-27T12:57:30.028Z,101087.50
2023-02-27T13:00:10.012Z,101090.00
2023-02-27T13:02:58.099Z,101085.78
2023-02-27T13:05:37.291Z,101090.13
2023-02-27T13:08:32.022Z,101082.13
2023-02-27T13:11:10.939Z,101086.56
2023-02-27T13:14:03.859Z,101097.47
2023-02-27T13:16:44.516Z,101098.44
2023-02-27T13:19:17.652Z,101086.00
2023-02-27T13:22:09.088Z,101096.75
2023-02-27T13:24:39.407Z,101070.41
2023-02-27T13:27:28.744Z,101086.94
2023-02-27T13:30:08.610Z,101075.91
2023-02-27T13:32:48.816Z,101080.03
2023-02-27T13:35:50.152Z,101091.81
2023-02-27T13:38:46.492Z,101088.22
2023-02-27T13:41:27.886Z,101087.81
2023-02-27T13:43:57.081Z,101085.06
2023-02-27T13:46:34.283Z,101089.69
2023-02-27T13:49:04.521Z,101090.13
2023-02-27T13:51:48.785Z,101094.34
2023-02-27T13:54:18.601Z,101094.34
2023-02-27T13:56:45.272Z,101091.09
2023-02-27T13:59:17.874Z,101088.47
2023-02-27T14:01:52.658Z,101088.97
2023-02-27T14:04:20.988Z,101096.75
2023-02-27T14:06:48.726Z,101075.78
2023-02-27T14:09:20.824Z,101095.38
2023-02-27T14:12:00.403Z,101079.47
2023-02-27T14:14:45.150Z,101096.00
2023-02-27T14:17:33.626Z,101070.00
2023-02-27T14:20:01.125Z,101098.44
2023-02-27T14:22:38.340Z,101078.00
2023-02-27T14:25:17.283Z,101094.44
2023-02-27T14:27:44.296Z,101095.88
2023-02-27T14:30:28.980Z,101081.78
2023-02-27T14:33:08.098Z,101097.69
2023-02-27T14:35:36.347Z,101111.28
2023-02-27T14:38:10.400Z,101103.03
2023-02-27T14:40:48.615Z,101090.59
2023-02-27T14:43:30.428Z,101108.19
2023-02-27T14:46:06.528Z,101114.22
2023-02-27T14:48:33.530Z,101120.41
2023-02-27T14:51:01.770Z,101119.66
2023-02-27T14:53:28.659Z,101098.22
2023-02-27T14:55:58.244Z,101127.78
2023-02-27T14:58:26.207Z,101126.94
2023-02-27T15:00:58.018Z,101121.16
2023-02-27T15:03:47.531Z,101122.19
2023-02-27T15:06:18.975Z,101108.91
2023-02-27T15:08:49.897Z,101120.81
2023-02-27T15:11:20.128Z,101132.31
2023-02-27T15:13:51.308Z,101137.34
2023-02-27T15:16:29.980Z,101141.13
2023-02-27T15:19:15.849Z,101135.88
2023-02-27T15:21:51.724Z,101133.00
2023-02-27T15:24:28.646Z,101151.00
2023-02-27T15:27:03.178Z,101131.19
2023-02-27T15:29:40.382Z,101146.25
2023-02-27T15:32:08.440Z,101159.66
2023-02-27T15:34:35.950Z,101156.88
2023-02-27T15:37:06.105Z,101157.78
2023-02-27T15:39:34.397Z,101165.81
2023-02-27T15:42:03.761Z,101137.97
2023-02-27T15:44:37.501Z,101167.88
2023-02-27T15:47:05.615Z,101161.13
2023-02-27T15:49:32.382Z,101169.44
2023-02-27T15:52:10.696Z,101141.34
2023-02-27T15:54:47.349Z,101144.84
2023-02-27T15:57:14.775Z,101171.75
2023-02-27T15:59:43.218Z,101169.38
2023-02-27T16:02:40.880Z,101156.75
2023-02-27T16:05:16.416Z,101171.75
2023-02-27T16:07:44.330Z,101172.13
2023-02-27T16:10:22.254Z,101182.28
2023-02-27T16:12:49.238Z,101153.41
2023-02-27T16:15:24.872Z,101187.28
2023-02-27T16:18:06.804Z,101197.69
2023-02-27T16:20:38.622Z,101194.25
2023-02-27T16:23:29.711Z,101203.88
2023-02-27T16:26:04.265Z,101221.66
2023-02-27T16:28:52.323Z,101221.97
2023-02-27T16:31:39.943Z,101220.72
2023-02-27T16:34:12.862Z,101225.78
2023-02-27T16:36:42.123Z,101211.34
2023-02-27T16:39:15.218Z,101232.09
2023-02-27T16:41:41.934Z,101227.13
2023-02-27T16:44:09.106Z,101231.63
2023-02-27T16:46:36.077Z,101224.84
2023-02-27T16:49:17.967Z,101211.53
2023-02-27T16:51:46.618Z,101212.78
2023-02-27T16:54:14.088Z,101212.47
2023-02-27T16:56:41.477Z,101232.22
2023-02-27T16:59:26.855Z,101235.78
2023-02-27T17:01:53.793Z,101243.34
2023-02-27T17:04:25.817Z,101234.72
2023-02-27T17:06:54.539Z,101259.22
2023-02-27T17:09:21.317Z,101239.88
2023-02-27T17:11:49.261Z,101264.09
2023-02-27T17:14:16.250Z,101266.84
2023-02-27T17:16:43.045Z,101262.59
2023-02-27T17:19:09.896Z,101250.13
2023-02-27T17:21:36.758Z,101263.19
2023-02-27T17:24:03.904Z,101264.31
2023-02-27T17:26:31.216Z,101235.13
2023-02-27T17:28:58.648Z,101279.31
2023-02-27T17:31:26.089Z,101277.66
2023-02-27T17:33:56.098Z,101281.09
2023-02-27T17:36:23.449Z,101281.09
2023-02-27T17:38:57.701Z,101282.03
2023-02-27T17:41:24.730Z,101297.25
2023-02-27T17:43:53.599Z,101288.50
2023-02-27T17:46:20.510Z,101293.66
2023-02-27T17:48:47.229Z,101304.94
2023-02-27T17:51:16.340Z,101294.06
2023-02-27T17:53:43.911Z,101285.69
2023-02-27T17:56:12.904Z,101306.16
2023-02-27T17:58:40.472Z,101290.66
2023-02-27T18:01:08.986Z,101306.81
2023-02-27T18:03:36.035Z,101309.19
2023-02-27T18:06:04.103Z,101315.75
2023-02-27T18:08:31.605Z,101289.63
2023-02-27T18:10:59.212Z,101316.09
2023-02-27T18:13:27.346Z,101301.16
2023-02-27T18:15:57.647Z,101312.44
2023-02-27T18:18:24.453Z,101318.53
2023-02-27T18:21:02.806Z,101301.44
2023-02-27T18:23:30.271Z,101317.31
2023-02-27T18:25:57.889Z,101309.16
2023-02-27T18:28:25.442Z,101317.59
2023-02-27T18:30:52.526Z,101312.53
2023-02-27T18:33:19.775Z,101324.56
2023-02-27T18:35:47.166Z,101305.28
2023-02-27T18:38:14.083Z,101319.75
2023-02-27T18:40:41.104Z,101332.88
2023-02-27T18:43:07.820Z,101300.56
2023-02-27T18:45:34.988Z,101305.00
2023-02-27T18:48:02.008Z,101336.84
2023-02-27T18:50:29.212Z,101331.28
2023-02-27T18:52:56.322Z,101346.59
2023-02-27T18:55:23.043Z,101333.16
2023-02-27T18:57:50.939Z,101344.41
2023-02-27T19:00:19.148Z,101351.28
2023-02-27T19:02:45.986Z,101351.28
2023-02-27T19:05:14.646Z,101349.03
2023-02-27T19:07:42.429Z,101339.25
2023-02-27T19:10:10.395Z,101358.91
2023-02-27T19:12:37.305Z,101347.50
2023-02-27T19:15:05.116Z,101358.41
2023-02-27T19:17:32.427Z,101371.97
2023-02-27T19:19:59.655Z,101357.16
2023-02-27T19:22:29.533Z,101333.88
2023-02-27T19:24:56.992Z,101362.09
2023-02-27T19:27:24.067Z,101385.53
2023-02-27T19:29:51.245Z,101380.28
2023-02-27T19:32:18.454Z,101387.97
2023-02-27T19:34:45.288Z,101390.19
2023-02-27T19:37:12.111Z,101382.19
2023-02-27T19:39:38.820Z,101394.53
2023-02-27T19:42:05.967Z,101413.09
2023-02-27T19:44:32.741Z,101380.19
2023-02-27T19:47:00.256Z,101393.16
2023-02-27T19:49:27.150Z,101410.91
2023-02-27T19:51:53.954Z,101413.72
2023-02-27T19:54:20.640Z,101418.88
2023-02-27T19:56:47.831Z,101400.25
2023-02-27T19:59:14.619Z,101418.13
2023-02-27T20:01:41.738Z,101411.69
2023-02-27T20:04:08.939Z,101425.13
2023-02-27T20:06:42.899Z,101423.66
2023-02-27T20:09:13.211Z,101430.34
2023-02-27T20:11:41.131Z,101427.53
2023-02-27T20:14:08.102Z,101434.53
2023-02-27T20:16:36.887Z,101432.00
2023-02-27T20:19:05.039Z,101437.16
2023-02-27T20:21:33.846Z,101443.47
2023-02-27T20:24:00.941Z,101446.25
2023-02-27T20:26:37.339Z,101446.25
2023-02-27T20:29:08.045Z,101425.69
2023-02-27T20:31:36.667Z,101423.25
2023-02-27T20:34:06.127Z,101435.28
2023-02-27T20:36:38.226Z,101449.66
2023-02-27T20:39:06.347Z,101452.28
2023-02-27T20:41:36.982Z,101453.03
2023-02-27T20:44:04.921Z,101432.63
2023-02-27T20:46:31.793Z,101446.25
2023-02-27T20:49:00.986Z,101437.72
2023-02-27T20:51:30.868Z,101450.25
2023-02-27T20:53:59.888Z,101451.34
2023-02-27T20:56:38.417Z,101457.53
2023-02-27T20:59:07.686Z,101436.28
2023-02-27T21:01:36.240Z,101455.00
2023-02-27T21:04:04.381Z,101455.00
2023-02-27T21:06:32.074Z,101440.25
2023-02-27T21:09:03.469Z,101445.31
2023-02-27T21:11:31.310Z,101448.72
2023-02-27T21:14:05.335Z,101455.09
2023-02-27T21:16:32.797Z,101451.59
2023-02-27T21:18:59.635Z,101430.66
2023-02-27T21:21:30.016Z,101455.66
2023-02-27T21:23:58.124Z,101441.19
2023-02-27T21:26:28.443Z,101444.72
2023-02-27T21:28:58.632Z,101441.34
2023-02-27T21:31:28.762Z,101427.13
2023-02-27T21:33:56.187Z,101447.88
2023-02-27T21:36:42.904Z,101445.25
2023-02-27T21:39:19.952Z,101455.78
2023-02-27T21:41:47.405Z,101452.44
2023-02-27T21:44:16.912Z,101456.69
2023-02-27T21:46:45.230Z,101458.22
2023-02-27T21:49:19.998Z,101454.50
2023-02-27T21:51:47.453Z,101461.34
2023-02-27T21:54:15.656Z,101456.63
2023-02-27T21:56:44.139Z,101469.91
2023-02-27T21:59:11.361Z,101451.69
2023-02-27T22:01:38.761Z,101481.09
2023-02-27T22:04:06.489Z,101477.41
2023-02-27T22:06:34.477Z,101474.72
2023-02-27T22:09:05.109Z,101487.00
2023-02-27T22:11:34.199Z,101472.06
2023-02-27T22:14:01.572Z,101480.09
2023-02-27T22:16:28.388Z,101492.91
2023-02-27T22:18:55.114Z,101475.78
2023-02-27T22:21:25.277Z,101499.69
2023-02-27T22:23:52.747Z,101494.59
2023-02-27T22:26:22.826Z,101490.00
2023-02-27T22:28:49.900Z,101487.31
2023-02-27T22:31:29.071Z,101486.56
2023-02-27T22:34:00.662Z,101483.94
2023-02-27T22:36:30.121Z,101483.16
2023-02-27T22:38:57.308Z,101483.22
2023-02-27T22:41:31.273Z,101460.34
2023-02-27T22:44:00.357Z,101470.94
2023-02-27T22:46:33.214Z,101467.78
2023-02-27T22:49:05.702Z,101476.78
2023-02-27T22:51:32.634Z,101479.16
2023-02-27T22:54:01.804Z,101488.66
2023-02-27T22:56:29.172Z,101492.47
2023-02-27T22:58:56.691Z,101494.88
2023-02-27T23:01:29.096Z,101487.16
2023-02-27T23:03:58.792Z,101493.81
2023-02-27T23:06:31.305Z,101485.63
2023-02-27T23:08:58.928Z,101483.31
2023-02-27T23:11:25.877Z,101498.16
2023-02-27T23:13:52.863Z,101486.72
2023-02-27T23:16:20.826Z,101473.56
2023-02-27T23:18:54.037Z,101482.22
2023-02-27T23:21:24.195Z,101503.56
2023-02-27T23:23:53.840Z,101509.63
2023-02-27T23:26:21.126Z,101506.00
2023-02-27T23:28:48.011Z,101494.81
2023-02-27T23:31:14.881Z,101522.38
2023-02-27T23:33:41.730Z,101515.91
2023-02-27T23:36:08.733Z,101525.22
2023-02-27T23:38:35.791Z,101522.84
2023-02-27T23:41:10.248Z,101510.72
2023-02-27T23:43:37.071Z,101499.03
2023-02-27T23:46:12.688Z,101513.19
2023-02-27T23:48:39.773Z,101513.44
2023-02-27T23:51:08.523Z,101506.81
2023-02-27T23:53:37.253Z,101509.44
2023-02-27T23:56:16.137Z,101506.91
2023-02-27T23:58:44.123Z,101527.31
